sensor_id;sensor_type;location;lat;lon;timestamp;P1;durP1;ratioP1;P2;durP2;ratioP2
71366;SDS011;60030;52.274;8.040;2023-03-21T00:02:10;14.77;;;8.53;;
71366;SDS011;60030;52.274;8.040;2023-03-21T00:04:37;10.67;;;7.70;;
71366;SDS011;60030;52.274;8.040;2023-03-21T00:07:04;17.37;;;8.97;;
71366;SDS011;60030;52.274;8.040;2023-03-21T00:09:31;14.07;;;7.93;;
71366;SDS011;60030;52.274;8.040;2023-03-21T00:11:58;15.43;;;8.47;;
71366;SDS011;60030;52.274;8.040;2023-03-21T00:14:26;16.23;;;8.63;;
71366;SDS011;60030;52.274;8.040;2023-03-21T00:16:54;15.70;;;8.60;;
71366;SDS011;60030;52.274;8.040;2023-03-21T00:19:23;15.67;;;8.43;;
71366;SDS011;60030;52.274;8.040;2023-03-21T00:21:53;16.40;;;9.60;;
71366;SDS011;60030;52.274;8.040;2023-03-21T00:24:20;17.10;;;9.37;;
71366;SDS011;60030;52.274;8.040;2023-03-21T00:26:48;15.13;;;8.80;;
71366;SDS011;60030;52.274;8.040;2023-03-21T00:29:15;14.80;;;8.10;;
71366;SDS011;60030;52.274;8.040;2023-03-21T00:31:45;16.93;;;8.93;;
71366;SDS011;60030;52.274;8.040;2023-03-21T00:34:12;16.43;;;9.00;;
71366;SDS011;60030;52.274;8.040;2023-03-21T00:36:41;19.57;;;8.97;;
71366;SDS011;60030;52.274;8.040;2023-03-21T00:39:08;16.77;;;9.23;;
71366;SDS011;60030;52.274;8.040;2023-03-21T00:41:36;17.90;;;9.90;;
71366;SDS011;60030;52.274;8.040;2023-03-21T00:44:03;14.90;;;8.80;;
71366;SDS011;60030;52.274;8.040;2023-03-21T00:46:30;16.57;;;9.00;;
71366;SDS011;60030;52.274;8.040;2023-03-21T00:48:57;16.53;;;9.50;;
71366;SDS011;60030;52.274;8.040;2023-03-21T00:51:24;15.00;;;9.53;;
71366;SDS011;60030;52.274;8.040;2023-03-21T00:53:54;15.70;;;8.60;;
71366;SDS011;60030;52.274;8.040;2023-03-21T00:56:26;17.07;;;9.27;;
71366;SDS011;60030;52.274;8.040;2023-03-21T00:58:53;20.40;;;9.03;;
71366;SDS011;60030;52.274;8.040;2023-03-21T01:01:20;18.97;;;8.80;;
71366;SDS011;60030;52.274;8.040;2023-03-21T01:03:47;17.10;;;8.60;;
71366;SDS011;60030;52.274;8.040;2023-03-21T01:06:29;18.60;;;8.93;;
71366;SDS011;60030;52.274;8.040;2023-03-21T01:08:58;19.00;;;9.37;;
71366;SDS011;60030;52.274;8.040;2023-03-21T01:11:26;17.00;;;9.10;;
71366;SDS011;60030;52.274;8.040;2023-03-21T01:13:53;16.63;;;9.07;;
71366;SDS011;60030;52.274;8.040;2023-03-21T01:16:22;16.23;;;8.90;;
71366;SDS011;60030;52.274;8.040;2023-03-21T01:18:49;16.87;;;9.70;;
71366;SDS011;60030;52.274;8.040;2023-03-21T01:21:16;17.67;;;9.53;;
71366;SDS011;60030;52.274;8.040;2023-03-21T01:23:44;19.67;;;9.67;;
71366;SDS011;60030;52.274;8.040;2023-03-21T01:26:13;22.07;;;9.87;;
71366;SDS011;60030;52.274;8.040;2023-03-21T01:28:43;17.33;;;9.43;;
71366;SDS011;60030;52.274;8.040;2023-03-21T01:31:11;19.77;;;9.57;;
71366;SDS011;60030;52.274;8.040;2023-03-21T01:33:39;12.53;;;8.90;;
71366;SDS011;60030;52.274;8.040;2023-03-21T01:36:07;17.63;;;9.10;;
71366;SDS011;60030;52.274;8.040;2023-03-21T01:38:40;15.33;;;9.17;;
71366;SDS011;60030;52.274;8.040;2023-03-21T01:41:08;16.40;;;9.00;;
71366;SDS011;60030;52.274;8.040;2023-03-21T01:43:46;15.90;;;8.50;;
71366;SDS011;60030;52.274;8.040;2023-03-21T01:49:29;18.87;;;9.70;;
71366;SDS011;60030;52.274;8.040;2023-03-21T01:52:10;17.60;;;9.33;;
71366;SDS011;60030;52.274;8.040;2023-03-21T01:54:40;15.27;;;10.10;;
71366;SDS011;60030;52.274;8.040;2023-03-21T01:57:12;17.37;;;9.27;;
71366;SDS011;60030;52.274;8.040;2023-03-21T01:59:44;15.77;;;9.53;;
71366;SDS011;60030;52.274;8.040;2023-03-21T02:02:33;18.60;;;10.10;;
71366;SDS011;60030;52.274;8.040;2023-03-21T02:05:21;17.33;;;9.00;;
71366;SDS011;60030;52.274;8.040;2023-03-21T02:07:53;16.37;;;9.00;;
71366;SDS011;60030;52.274;8.040;2023-03-21T02:10:21;18.93;;;9.47;;
71366;SDS011;60030;52.274;8.040;2023-03-21T02:12:52;18.70;;;9.17;;
71366;SDS011;60030;52.274;8.040;2023-03-21T02:15:32;19.47;;;9.43;;
71366;SDS011;60030;52.274;8.040;2023-03-21T02:18:13;17.33;;;8.60;;
71366;SDS011;60030;52.274;8.040;2023-03-21T02:21:08;18.10;;;10.17;;
71366;SDS011;60030;52.274;8.040;2023-03-21T02:24:31;19.70;;;9.33;;
71366;SDS011;60030;52.274;8.040;2023-03-21T02:27:26;20.40;;;9.63;;
71366;SDS011;60030;52.274;8.040;2023-03-21T02:30:10;16.03;;;9.23;;
71366;SDS011;60030;52.274;8.040;2023-03-21T02:33:06;18.97;;;9.90;;
71366;SDS011;60030;52.274;8.040;2023-03-21T02:35:51;18.53;;;9.40;;
71366;SDS011;60030;52.274;8.040;2023-03-21T02:38:33;18.50;;;10.50;;
71366;SDS011;60030;52.274;8.040;2023-03-21T02:41:08;16.93;;;10.30;;
71366;SDS011;60030;52.274;8.040;2023-03-21T02:43:44;20.10;;;10.00;;
71366;SDS011;60030;52.274;8.040;2023-03-21T02:46:16;22.20;;;10.43;;
71366;SDS011;60030;52.274;8.040;2023-03-21T02:48:53;18.17;;;10.47;;
71366;SDS011;60030;52.274;8.040;2023-03-21T02:51:23;17.40;;;10.23;;
71366;SDS011;60030;52.274;8.040;2023-03-21T02:53:57;16.70;;;9.30;;
71366;SDS011;60030;52.274;8.040;2023-03-21T02:56:27;18.60;;;10.93;;
71366;SDS011;60030;52.274;8.040;2023-03-21T02:58:56;22.03;;;11.07;;
71366;SDS011;60030;52.274;8.040;2023-03-21T03:01:25;20.43;;;10.73;;
71366;SDS011;60030;52.274;8.040;2023-03-21T03:03:53;21.03;;;10.63;;
71366;SDS011;60030;52.274;8.040;2023-03-21T03:06:21;21.00;;;10.63;;
71366;SDS011;60030;52.274;8.040;2023-03-21T03:11:46;24.60;;;12.10;;
71366;SDS011;60030;52.274;8.040;2023-03-21T03:14:29;26.03;;;12.07;;
71366;SDS011;60030;52.274;8.040;2023-03-21T03:17:12;22.93;;;11.87;;
71366;SDS011;60030;52.274;8.040;2023-03-21T03:19:53;23.33;;;12.43;;
71366;SDS011;60030;52.274;8.040;2023-03-21T03:22:38;25.20;;;12.93;;
71366;SDS011;60030;52.274;8.040;2023-03-21T03:25:13;23.90;;;12.30;;
71366;SDS011;60030;52.274;8.040;2023-03-21T03:27:50;24.30;;;13.40;;
71366;SDS011;60030;52.274;8.040;2023-03-21T03:30:20;25.00;;;14.60;;
71366;SDS011;60030;52.274;8.040;2023-03-21T03:32:51;31.70;;;13.80;;
71366;SDS011;60030;52.274;8.040;2023-03-21T03:35:22;30.40;;;15.07;;
71366;SDS011;60030;52.274;8.040;2023-03-21T03:37:52;29.83;;;16.30;;
71366;SDS011;60030;52.274;8.040;2023-03-21T03:40:24;27.80;;;15.30;;
71366;SDS011;60030;52.274;8.040;2023-03-21T03:43:10;26.20;;;15.73;;
71366;SDS011;60030;52.274;8.040;2023-03-21T03:45:42;26.60;;;15.97;;
71366;SDS011;60030;52.274;8.040;2023-03-21T03:48:14;26.13;;;16.43;;
71366;SDS011;60030;52.274;8.040;2023-03-21T03:50:50;28.80;;;16.90;;
71366;SDS011;60030;52.274;8.040;2023-03-21T03:53:33;29.33;;;16.03;;
71366;SDS011;60030;52.274;8.040;2023-03-21T03:56:07;33.93;;;17.40;;
71366;SDS011;60030;52.274;8.040;2023-03-21T03:58:38;33.17;;;17.13;;
71366;SDS011;60030;52.274;8.040;2023-03-21T04:01:06;28.50;;;16.23;;
71366;SDS011;60030;52.274;8.040;2023-03-21T04:03:34;29.13;;;16.97;;
71366;SDS011;60030;52.274;8.040;2023-03-21T04:06:06;33.90;;;16.87;;
71366;SDS011;60030;52.274;8.040;2023-03-21T04:08:33;28.77;;;16.70;;
71366;SDS011;60030;52.274;8.040;2023-03-21T04:11:02;29.87;;;16.70;;
71366;SDS011;60030;52.274;8.040;2023-03-21T04:13:35;27.67;;;16.47;;
71366;SDS011;60030;52.274;8.040;2023-03-21T04:16:06;27.33;;;15.37;;
71366;SDS011;60030;52.274;8.040;2023-03-21T04:18:33;26.67;;;16.27;;
71366;SDS011;60030;52.274;8.040;2023-03-21T04:21:05;30.47;;;17.03;;
71366;SDS011;60030;52.274;8.040;2023-03-21T04:23:33;30.20;;;17.33;;
71366;SDS011;60030;52.274;8.040;2023-03-21T04:26:01;32.47;;;18.13;;
71366;SDS011;60030;52.274;8.040;2023-03-21T04:28:36;31.07;;;17.40;;
71366;SDS011;60030;52.274;8.040;2023-03-21T04:31:30;34.87;;;18.23;;
71366;SDS011;60030;52.274;8.040;2023-03-21T04:34:05;32.53;;;18.00;;
71366;SDS011;60030;52.274;8.040;2023-03-21T04:36:34;31.53;;;18.63;;
71366;SDS011;60030;52.274;8.040;2023-03-21T04:39:07;31.87;;;18.47;;
71366;SDS011;60030;52.274;8.040;2023-03-21T04:41:37;32.63;;;17.77;;
71366;SDS011;60030;52.274;8.040;2023-03-21T04:44:06;29.93;;;16.90;;
71366;SDS011;60030;52.274;8.040;2023-03-21T04:46:33;32.00;;;17.77;;
71366;SDS011;60030;52.274;8.040;2023-03-21T04:49:01;33.53;;;17.70;;
71366;SDS011;60030;52.274;8.040;2023-03-21T04:51:29;29.70;;;17.10;;
71366;SDS011;60030;52.274;8.040;2023-03-21T04:53:56;30.17;;;17.03;;
71366;SDS011;60030;52.274;8.040;2023-03-21T04:56:23;31.00;;;17.37;;
71366;SDS011;60030;52.274;8.040;2023-03-21T04:58:56;32.53;;;17.83;;
71366;SDS011;60030;52.274;8.040;2023-03-21T05:01:25;32.80;;;18.47;;
71366;SDS011;60030;52.274;8.040;2023-03-21T05:03:55;27.47;;;17.07;;
71366;SDS011;60030;52.274;8.040;2023-03-21T05:06:23;33.53;;;18.43;;
71366;SDS011;60030;52.274;8.040;2023-03-21T05:08:50;30.17;;;17.93;;
71366;SDS011;60030;52.274;8.040;2023-03-21T05:11:17;30.77;;;18.30;;
71366;SDS011;60030;52.274;8.040;2023-03-21T05:13:44;30.87;;;18.53;;
71366;SDS011;60030;52.274;8.040;2023-03-21T05:16:11;30.70;;;18.53;;
71366;SDS011;60030;52.274;8.040;2023-03-21T05:18:40;34.83;;;18.80;;
71366;SDS011;60030;52.274;8.040;2023-03-21T05:21:13;35.37;;;18.97;;
71366;SDS011;60030;52.274;8.040;2023-03-21T05:23:43;34.80;;;20.23;;
71366;SDS011;60030;52.274;8.040;2023-03-21T05:26:18;40.10;;;22.17;;
71366;SDS011;60030;52.274;8.040;2023-03-21T05:28:56;39.07;;;21.83;;
71366;SDS011;60030;52.274;8.040;2023-03-21T05:31:24;39.37;;;20.00;;
71366;SDS011;60030;52.274;8.040;2023-03-21T05:34:03;36.07;;;21.40;;
71366;SDS011;60030;52.274;8.040;2023-03-21T05:36:30;38.17;;;20.53;;
71366;SDS011;60030;52.274;8.040;2023-03-21T05:38:59;37.07;;;20.23;;
71366;SDS011;60030;52.274;8.040;2023-03-21T05:41:28;40.80;;;20.73;;
71366;SDS011;60030;52.274;8.040;2023-03-21T05:43:57;33.97;;;19.87;;
71366;SDS011;60030;52.274;8.040;2023-03-21T05:46:24;32.50;;;18.33;;
71366;SDS011;60030;52.274;8.040;2023-03-21T05:48:52;34.77;;;18.37;;
71366;SDS011;60030;52.274;8.040;2023-03-21T05:51:21;31.43;;;18.83;;
71366;SDS011;60030;52.274;8.040;2023-03-21T05:53:49;30.10;;;18.77;;
71366;SDS011;60030;52.274;8.040;2023-03-21T05:56:17;29.00;;;18.23;;
71366;SDS011;60030;52.274;8.040;2023-03-21T05:58:48;35.30;;;18.83;;
71366;SDS011;60030;52.274;8.040;2023-03-21T06:01:16;36.30;;;18.57;;
71366;SDS011;60030;52.274;8.040;2023-03-21T06:03:51;28.23;;;17.00;;
71366;SDS011;60030;52.274;8.040;2023-03-21T06:06:24;27.33;;;16.03;;
71366;SDS011;60030;52.274;8.040;2023-03-21T06:08:53;27.20;;;16.50;;
71366;SDS011;60030;52.274;8.040;2023-03-21T06:11:22;34.33;;;17.53;;
71366;SDS011;60030;52.274;8.040;2023-03-21T06:14:08;29.53;;;15.80;;
71366;SDS011;60030;52.274;8.040;2023-03-21T06:16:35;30.93;;;15.80;;
71366;SDS011;60030;52.274;8.040;2023-03-21T06:19:02;28.60;;;15.63;;
71366;SDS011;60030;52.274;8.040;2023-03-21T06:21:42;25.30;;;14.67;;
71366;SDS011;60030;52.274;8.040;2023-03-21T06:24:09;28.30;;;15.93;;
71366;SDS011;60030;52.274;8.040;2023-03-21T06:26:40;23.93;;;14.80;;
71366;SDS011;60030;52.274;8.040;2023-03-21T06:29:08;30.23;;;14.47;;
71366;SDS011;60030;52.274;8.040;2023-03-21T06:31:35;26.47;;;14.27;;
71366;SDS011;60030;52.274;8.040;2023-03-21T06:34:03;23.17;;;14.33;;
71366;SDS011;60030;52.274;8.040;2023-03-21T06:36:31;22.87;;;13.10;;
71366;SDS011;60030;52.274;8.040;2023-03-21T06:38:59;27.37;;;13.83;;
71366;SDS011;60030;52.274;8.040;2023-03-21T06:41:27;24.70;;;13.20;;
71366;SDS011;60030;52.274;8.040;2023-03-21T06:44:02;22.77;;;13.40;;
71366;SDS011;60030;52.274;8.040;2023-03-21T06:46:34;28.17;;;13.40;;
71366;SDS011;60030;52.274;8.040;2023-03-21T06:49:02;23.97;;;12.00;;
71366;SDS011;60030;52.274;8.040;2023-03-21T06:51:29;26.07;;;13.07;;
71366;SDS011;60030;52.274;8.040;2023-03-21T06:54:19;27.40;;;13.20;;
71366;SDS011;60030;52.274;8.040;2023-03-21T06:56:52;25.43;;;13.20;;
71366;SDS011;60030;52.274;8.040;2023-03-21T06:59:25;23.17;;;12.67;;
71366;SDS011;60030;52.274;8.040;2023-03-21T07:02:04;25.73;;;12.93;;
71366;SDS011;60030;52.274;8.040;2023-03-21T07:04:36;23.43;;;13.47;;
71366;SDS011;60030;52.274;8.040;2023-03-21T07:07:05;26.33;;;12.57;;
71366;SDS011;60030;52.274;8.040;2023-03-21T07:09:34;28.87;;;14.40;;
71366;SDS011;60030;52.274;8.040;2023-03-21T07:12:03;25.67;;;13.37;;
71366;SDS011;60030;52.274;8.040;2023-03-21T07:14:45;25.67;;;13.07;;
71366;SDS011;60030;52.274;8.040;2023-03-21T07:17:12;24.70;;;13.90;;
71366;SDS011;60030;52.274;8.040;2023-03-21T07:19:39;21.37;;;11.33;;
71366;SDS011;60030;52.274;8.040;2023-03-21T07:22:06;26.43;;;13.83;;
71366;SDS011;60030;52.274;8.040;2023-03-21T07:24:34;23.93;;;12.77;;
71366;SDS011;60030;52.274;8.040;2023-03-21T07:27:01;24.20;;;12.60;;
71366;SDS011;60030;52.274;8.040;2023-03-21T07:29:29;27.00;;;12.83;;
71366;SDS011;60030;52.274;8.040;2023-03-21T07:31:56;22.33;;;12.13;;
71366;SDS011;60030;52.274;8.040;2023-03-21T07:34:23;21.30;;;11.60;;
71366;SDS011;60030;52.274;8.040;2023-03-21T07:36:51;22.70;;;12.57;;
71366;SDS011;60030;52.274;8.040;2023-03-21T07:39:18;24.13;;;12.50;;
71366;SDS011;60030;52.274;8.040;2023-03-21T07:41:49;18.20;;;11.90;;
71366;SDS011;60030;52.274;8.040;2023-03-21T07:44:36;20.40;;;13.10;;
71366;SDS011;60030;52.274;8.040;2023-03-21T07:47:03;20.73;;;13.37;;
71366;SDS011;60030;52.274;8.040;2023-03-21T07:49:31;23.63;;;13.37;;
71366;SDS011;60030;52.274;8.040;2023-03-21T07:51:59;21.10;;;13.40;;
71366;SDS011;60030;52.274;8.040;2023-03-21T07:54:26;24.47;;;13.83;;
71366;SDS011;60030;52.274;8.040;2023-03-21T07:56:55;21.63;;;13.43;;
71366;SDS011;60030;52.274;8.040;2023-03-21T07:59:22;24.33;;;14.03;;
71366;SDS011;60030;52.274;8.040;2023-03-21T08:01:49;24.87;;;13.43;;
71366;SDS011;60030;52.274;8.040;2023-03-21T08:04:16;24.50;;;14.30;;
71366;SDS011;60030;52.274;8.040;2023-03-21T08:06:43;25.40;;;13.87;;
71366;SDS011;60030;52.274;8.040;2023-03-21T08:09:10;20.27;;;13.43;;
71366;SDS011;60030;52.274;8.040;2023-03-21T08:11:38;19.10;;;12.47;;
71366;SDS011;60030;52.274;8.040;2023-03-21T08:14:07;23.43;;;12.90;;
71366;SDS011;60030;52.274;8.040;2023-03-21T08:16:34;21.13;;;12.73;;
71366;SDS011;60030;52.274;8.040;2023-03-21T08:19:01;20.23;;;11.57;;
71366;SDS011;60030;52.274;8.040;2023-03-21T08:21:28;19.13;;;12.77;;
71366;SDS011;60030;52.274;8.040;2023-03-21T08:23:55;18.03;;;11.70;;
71366;SDS011;60030;52.274;8.040;2023-03-21T08:26:22;23.03;;;12.00;;
71366;SDS011;60030;52.274;8.040;2023-03-21T08:28:50;19.00;;;11.77;;
71366;SDS011;60030;52.274;8.040;2023-03-21T08:31:19;19.83;;;11.87;;
71366;SDS011;60030;52.274;8.040;2023-03-21T08:33:46;19.63;;;11.90;;
71366;SDS011;60030;52.274;8.040;2023-03-21T08:36:18;17.90;;;11.40;;
71366;SDS011;60030;52.274;8.040;2023-03-21T08:38:45;20.53;;;11.63;;
71366;SDS011;60030;52.274;8.040;2023-03-21T08:41:12;19.43;;;12.93;;
71366;SDS011;60030;52.274;8.040;2023-03-21T08:43:40;19.80;;;12.97;;
71366;SDS011;60030;52.274;8.040;2023-03-21T08:46:07;21.87;;;11.57;;
71366;SDS011;60030;52.274;8.040;2023-03-21T08:48:35;15.93;;;10.53;;
71366;SDS011;60030;52.274;8.040;2023-03-21T08:51:03;19.43;;;10.97;;
71366;SDS011;60030;52.274;8.040;2023-03-21T08:53:31;18.43;;;11.50;;
71366;SDS011;60030;52.274;8.040;2023-03-21T08:55:58;19.90;;;10.90;;
71366;SDS011;60030;52.274;8.040;2023-03-21T08:58:25;18.53;;;10.20;;
71366;SDS011;60030;52.274;8.040;2023-03-21T09:00:52;15.93;;;10.50;;
71366;SDS011;60030;52.274;8.040;2023-03-21T09:03:19;20.10;;;10.77;;
71366;SDS011;60030;52.274;8.040;2023-03-21T09:05:48;18.50;;;11.33;;
71366;SDS011;60030;52.274;8.040;2023-03-21T09:08:15;18.47;;;11.40;;
71366;SDS011;60030;52.274;8.040;2023-03-21T09:10:42;15.63;;;11.00;;
71366;SDS011;60030;52.274;8.040;2023-03-21T09:13:09;17.33;;;10.63;;
71366;SDS011;60030;52.274;8.040;2023-03-21T09:15:36;17.50;;;10.97;;
71366;SDS011;60030;52.274;8.040;2023-03-21T09:18:04;16.57;;;10.27;;
71366;SDS011;60030;52.274;8.040;2023-03-21T09:20:39;14.37;;;9.83;;
71366;SDS011;60030;52.274;8.040;2023-03-21T09:23:08;17.37;;;11.53;;
71366;SDS011;60030;52.274;8.040;2023-03-21T09:25:36;16.93;;;10.57;;
71366;SDS011;60030;52.274;8.040;2023-03-21T09:28:04;16.33;;;10.87;;
71366;SDS011;60030;52.274;8.040;2023-03-21T09:30:31;16.40;;;11.23;;
71366;SDS011;60030;52.274;8.040;2023-03-21T09:33:00;17.43;;;10.90;;
71366;SDS011;60030;52.274;8.040;2023-03-21T09:35:30;17.60;;;11.33;;
71366;SDS011;60030;52.274;8.040;2023-03-21T09:37:59;17.77;;;11.40;;
71366;SDS011;60030;52.274;8.040;2023-03-21T09:40:33;19.53;;;10.37;;
71366;SDS011;60030;52.274;8.040;2023-03-21T09:43:17;18.13;;;11.07;;
71366;SDS011;60030;52.274;8.040;2023-03-21T09:45:57;16.83;;;10.20;;
71366;SDS011;60030;52.274;8.040;2023-03-21T09:48:32;19.10;;;11.63;;
71366;SDS011;60030;52.274;8.040;2023-03-21T09:51:01;16.97;;;10.63;;
71366;SDS011;60030;52.274;8.040;2023-03-21T09:53:31;18.23;;;10.40;;
71366;SDS011;60030;52.274;8.040;2023-03-21T09:56:04;15.47;;;10.53;;
71366;SDS011;60030;52.274;8.040;2023-03-21T09:58:36;17.77;;;10.70;;
71366;SDS011;60030;52.274;8.040;2023-03-21T10:01:08;16.00;;;10.20;;
71366;SDS011;60030;52.274;8.040;2023-03-21T10:03:54;16.73;;;9.63;;
71366;SDS011;60030;52.274;8.040;2023-03-21T10:06:24;13.57;;;9.00;;
71366;SDS011;60030;52.274;8.040;2023-03-21T10:08:55;16.27;;;9.20;;
71366;SDS011;60030;52.274;8.040;2023-03-21T10:11:27;15.70;;;9.83;;
71366;SDS011;60030;52.274;8.040;2023-03-21T10:13:58;17.17;;;10.43;;
71366;SDS011;60030;52.274;8.040;2023-03-21T10:16:30;15.10;;;9.67;;
71366;SDS011;60030;52.274;8.040;2023-03-21T10:18:59;17.00;;;10.43;;
71366;SDS011;60030;52.274;8.040;2023-03-21T10:21:31;17.33;;;10.50;;
71366;SDS011;60030;52.274;8.040;2023-03-21T10:23:58;17.00;;;10.33;;
71366;SDS011;60030;52.274;8.040;2023-03-21T10:26:27;16.93;;;11.37;;
71366;SDS011;60030;52.274;8.040;2023-03-21T10:28:56;14.03;;;10.53;;
71366;SDS011;60030;52.274;8.040;2023-03-21T10:31:27;14.20;;;9.73;;
71366;SDS011;60030;52.274;8.040;2023-03-21T10:33:56;13.87;;;9.93;;
71366;SDS011;60030;52.274;8.040;2023-03-21T10:36:28;17.43;;;10.47;;
71366;SDS011;60030;52.274;8.040;2023-03-21T10:38:58;12.93;;;10.03;;
71366;SDS011;60030;52.274;8.040;2023-03-21T10:41:30;13.77;;;8.73;;
71366;SDS011;60030;52.274;8.040;2023-03-21T10:44:04;19.53;;;9.37;;
71366;SDS011;60030;52.274;8.040;2023-03-21T10:46:33;14.63;;;8.77;;
71366;SDS011;60030;52.274;8.040;2023-03-21T10:49:00;14.73;;;9.00;;
71366;SDS011;60030;52.274;8.040;2023-03-21T10:51:29;13.60;;;8.77;;
71366;SDS011;60030;52.274;8.040;2023-03-21T10:53:59;15.20;;;8.97;;
71366;SDS011;60030;52.274;8.040;2023-03-21T10:56:34;17.27;;;8.67;;
71366;SDS011;60030;52.274;8.040;2023-03-21T10:59:03;16.00;;;9.10;;
71366;SDS011;60030;52.274;8.040;2023-03-21T11:01:35;18.27;;;9.23;;
71366;SDS011;60030;52.274;8.040;2023-03-21T11:04:06;13.57;;;8.80;;
71366;SDS011;60030;52.274;8.040;2023-03-21T11:06:36;13.50;;;9.43;;
71366;SDS011;60030;52.274;8.040;2023-03-21T11:09:05;16.13;;;9.20;;
71366;SDS011;60030;52.274;8.040;2023-03-21T11:11:39;14.33;;;9.73;;
71366;SDS011;60030;52.274;8.040;2023-03-21T11:14:23;14.13;;;9.47;;
71366;SDS011;60030;52.274;8.040;2023-03-21T11:16:52;13.93;;;9.53;;
71366;SDS011;60030;52.274;8.040;2023-03-21T11:19:24;13.40;;;9.50;;
71366;SDS011;60030;52.274;8.040;2023-03-21T11:21:56;18.47;;;9.97;;
71366;SDS011;60030;52.274;8.040;2023-03-21T11:24:23;15.07;;;10.00;;
71366;SDS011;60030;52.274;8.040;2023-03-21T11:26:56;12.70;;;9.60;;
71366;SDS011;60030;52.274;8.040;2023-03-21T11:29:30;15.63;;;9.63;;
71366;SDS011;60030;52.274;8.040;2023-03-21T11:31:59;12.27;;;9.40;;
71366;SDS011;60030;52.274;8.040;2023-03-21T11:34:38;15.13;;;9.70;;
71366;SDS011;60030;52.274;8.040;2023-03-21T11:37:16;16.00;;;11.37;;
71366;SDS011;60030;52.274;8.040;2023-03-21T11:39:53;14.57;;;10.03;;
71366;SDS011;60030;52.274;8.040;2023-03-21T11:42:30;13.77;;;9.23;;
71366;SDS011;60030;52.274;8.040;2023-03-21T11:45:04;15.40;;;10.37;;
71366;SDS011;60030;52.274;8.040;2023-03-21T11:47:38;12.33;;;9.50;;
71366;SDS011;60030;52.274;8.040;2023-03-21T11:50:13;13.20;;;9.37;;
71366;SDS011;60030;52.274;8.040;2023-03-21T11:55:51;9.87;;;8.67;;
71366;SDS011;60030;52.274;8.040;2023-03-21T11:58:31;12.50;;;8.77;;
71366;SDS011;60030;52.274;8.040;2023-03-21T12:01:11;13.17;;;8.93;;
71366;SDS011;60030;52.274;8.040;2023-03-21T12:03:52;12.43;;;8.10;;
71366;SDS011;60030;52.274;8.040;2023-03-21T12:06:25;13.30;;;8.37;;
71366;SDS011;60030;52.274;8.040;2023-03-21T12:09:01;13.50;;;8.33;;
71366;SDS011;60030;52.274;8.040;2023-03-21T12:11:44;12.93;;;8.47;;
71366;SDS011;60030;52.274;8.040;2023-03-21T12:14:23;13.97;;;8.87;;
71366;SDS011;60030;52.274;8.040;2023-03-21T12:17:03;14.53;;;8.73;;
71366;SDS011;60030;52.274;8.040;2023-03-21T12:19:47;13.33;;;8.40;;
71366;SDS011;60030;52.274;8.040;2023-03-21T12:22:35;14.47;;;8.20;;
71366;SDS011;60030;52.274;8.040;2023-03-21T12:25:10;11.50;;;7.77;;
71366;SDS011;60030;52.274;8.040;2023-03-21T12:27:43;13.67;;;8.57;;
71366;SDS011;60030;52.274;8.040;2023-03-21T12:30:23;11.33;;;8.40;;
71366;SDS011;60030;52.274;8.040;2023-03-21T12:33:02;14.23;;;9.33;;
71366;SDS011;60030;52.274;8.040;2023-03-21T12:36:02;12.63;;;8.47;;
71366;SDS011;60030;52.274;8.040;2023-03-21T12:38:43;12.07;;;8.20;;
71366;SDS011;60030;52.274;8.040;2023-03-21T12:41:21;12.43;;;8.67;;
71366;SDS011;60030;52.274;8.040;2023-03-21T12:43:52;14.47;;;8.70;;
71366;SDS011;60030;52.274;8.040;2023-03-21T12:46:28;10.17;;;8.87;;
71366;SDS011;60030;52.274;8.040;2023-03-21T12:49:01;12.20;;;8.37;;
71366;SDS011;60030;52.274;8.040;2023-03-21T12:51:35;13.53;;;9.20;;
71366;SDS011;60030;52.274;8.040;2023-03-21T12:54:06;13.73;;;9.63;;
71366;SDS011;60030;52.274;8.040;2023-03-21T12:56:42;15.17;;;9.40;;
71366;SDS011;60030;52.274;8.040;2023-03-21T12:59:20;12.37;;;9.27;;
71366;SDS011;60030;52.274;8.040;2023-03-21T13:01:54;11.70;;;9.37;;
71366;SDS011;60030;52.274;8.040;2023-03-21T13:04:39;13.23;;;9.73;;
71366;SDS011;60030;52.274;8.040;2023-03-21T13:07:12;15.33;;;10.23;;
71366;SDS011;60030;52.274;8.040;2023-03-21T13:09:44;13.20;;;9.33;;
71366;SDS011;60030;52.274;8.040;2023-03-21T13:12:15;14.23;;;9.37;;
71366;SDS011;60030;52.274;8.040;2023-03-21T13:14:52;13.07;;;9.10;;
71366;SDS011;60030;52.274;8.040;2023-03-21T13:17:29;12.13;;;9.43;;
71366;SDS011;60030;52.274;8.040;2023-03-21T13:20:03;13.53;;;9.67;;
71366;SDS011;60030;52.274;8.040;2023-03-21T13:22:38;10.53;;;8.87;;
71366;SDS011;60030;52.274;8.040;2023-03-21T13:25:06;12.17;;;9.20;;
71366;SDS011;60030;52.274;8.040;2023-03-21T13:27:42;12.77;;;9.53;;
71366;SDS011;60030;52.274;8.040;2023-03-21T13:30:17;10.30;;;9.13;;
71366;SDS011;60030;52.274;8.040;2023-03-21T13:32:47;11.97;;;8.60;;
71366;SDS011;60030;52.274;8.040;2023-03-21T13:35:17;9.53;;;7.70;;
71366;SDS011;60030;52.274;8.040;2023-03-21T13:37:48;11.03;;;8.23;;
71366;SDS011;60030;52.274;8.040;2023-03-21T13:40:21;13.07;;;7.63;;
71366;SDS011;60030;52.274;8.040;2023-03-21T13:42:50;10.67;;;7.57;;
71366;SDS011;60030;52.274;8.040;2023-03-21T13:45:23;7.97;;;7.17;;
71366;SDS011;60030;52.274;8.040;2023-03-21T13:47:55;9.40;;;6.50;;
71366;SDS011;60030;52.274;8.040;2023-03-21T13:50:24;7.87;;;6.00;;
71366;SDS011;60030;52.274;8.040;2023-03-21T13:58:49;8.00;;;5.10;;
71366;SDS011;60030;52.274;8.040;2023-03-21T14:01:25;10.57;;;5.30;;
71366;SDS011;60030;52.274;8.040;2023-03-21T14:03:58;5.83;;;4.87;;
71366;SDS011;60030;52.274;8.040;2023-03-21T14:06:31;8.23;;;4.97;;
71366;SDS011;60030;52.274;8.040;2023-03-21T14:09:01;7.53;;;5.07;;
71366;SDS011;60030;52.274;8.040;2023-03-21T14:11:29;6.33;;;4.53;;
71366;SDS011;60030;52.274;8.040;2023-03-21T14:13:58;7.80;;;5.37;;
71366;SDS011;60030;52.274;8.040;2023-03-21T14:16:26;7.77;;;5.37;;
71366;SDS011;60030;52.274;8.040;2023-03-21T14:18:55;8.90;;;4.60;;
71366;SDS011;60030;52.274;8.040;2023-03-21T14:21:27;14.37;;;5.50;;
71366;SDS011;60030;52.274;8.040;2023-03-21T14:23:56;7.13;;;4.83;;
71366;SDS011;60030;52.274;8.040;2023-03-21T14:26:25;8.63;;;4.43;;
71366;SDS011;60030;52.274;8.040;2023-03-21T14:28:55;8.77;;;4.30;;
71366;SDS011;60030;52.274;8.040;2023-03-21T14:31:22;9.03;;;6.27;;
71366;SDS011;60030;52.274;8.040;2023-03-21T14:33:51;12.93;;;6.20;;
71366;SDS011;60030;52.274;8.040;2023-03-21T14:36:22;9.23;;;6.47;;
71366;SDS011;60030;52.274;8.040;2023-03-21T14:38:58;7.87;;;6.40;;
71366;SDS011;60030;52.274;8.040;2023-03-21T14:41:30;7.20;;;5.07;;
71366;SDS011;60030;52.274;8.040;2023-03-21T14:44:02;6.17;;;4.10;;
71366;SDS011;60030;52.274;8.040;2023-03-21T14:46:37;5.77;;;3.93;;
71366;SDS011;60030;52.274;8.040;2023-03-21T14:49:09;8.50;;;4.07;;
71366;SDS011;60030;52.274;8.040;2023-03-21T14:51:37;7.97;;;4.07;;
71366;SDS011;60030;52.274;8.040;2023-03-21T14:54:08;5.93;;;4.00;;
71366;SDS011;60030;52.274;8.040;2023-03-21T14:56:38;7.97;;;4.50;;
71366;SDS011;60030;52.274;8.040;2023-03-21T14:59:08;6.67;;;3.83;;
71366;SDS011;60030;52.274;8.040;2023-03-21T15:01:39;7.20;;;3.67;;
71366;SDS011;60030;52.274;8.040;2023-03-21T15:04:06;8.40;;;4.00;;
71366;SDS011;60030;52.274;8.040;2023-03-21T15:06:35;7.50;;;4.53;;
71366;SDS011;60030;52.274;8.040;2023-03-21T15:09:16;8.07;;;4.20;;
71366;SDS011;60030;52.274;8.040;2023-03-21T15:11:47;6.93;;;3.70;;